createdAt,value
2023-05-19T00:01:00.695Z,108.53
2023-05-19T00:03:40.843Z,105.80
2023-05-19T00:06:09.304Z,109.40
2023-05-19T00:08:40.038Z,109.10
2023-05-19T00:11:08.175Z,105.65
2023-05-19T00:13:36.034Z,109.95
2023-05-19T00:16:04.105Z,104.80
2023-05-19T00:18:34.748Z,103.95
2023-05-19T00:21:04.475Z,109.90
2023-05-19T00:23:32.053Z,108.80
2023-05-19T00:25:59.506Z,109.60
2023-05-19T00:28:27.016Z,104.80
2023-05-19T00:30:54.850Z,113.57
2023-05-19T00:33:22.779Z,103.38
2023-05-19T00:35:50.253Z,107.05
2023-05-19T00:38:17.683Z,104.35
2023-05-19T00:40:45.713Z,116.93
2023-05-19T00:43:13.368Z,110.97
2023-05-19T00:45:41.400Z,106.53
2023-05-19T00:48:09.445Z,103.43
2023-05-19T00:50:37.188Z,101.28
2023-05-19T00:53:04.865Z,108.80
2023-05-19T00:55:33.886Z,104.95
2023-05-19T00:58:01.913Z,107.10
2023-05-19T01:00:31.031Z,110.78
2023-05-19T01:02:59.149Z,97.38
2023-05-19T01:05:27.257Z,100.68
2023-05-19T01:07:56.564Z,105.45
2023-05-19T01:10:24.151Z,104.38
2023-05-19T01:12:51.567Z,114.15
2023-05-19T01:15:19.972Z,112.88
2023-05-19T01:18:12.025Z,114.93
2023-05-19T01:20:46.489Z,115.80
2023-05-19T01:23:36.854Z,114.85
2023-05-19T01:26:32.539Z,101.25
2023-05-19T01:29:28.606Z,111.07
2023-05-19T01:32:00.351Z,116.55
2023-05-19T01:34:35.305Z,113.03
2023-05-19T01:37:05.496Z,110.60
2023-05-19T01:39:34.587Z,111.22
2023-05-19T01:42:04.222Z,121.90
2023-05-19T01:44:33.702Z,126.70
2023-05-19T01:47:02.460Z,123.75
2023-05-19T01:49:32.664Z,133.70
2023-05-19T01:52:00.625Z,136.25
2023-05-19T01:54:28.441Z,136.95
2023-05-19T01:57:16.001Z,139.43
2023-05-19T02:00:05.856Z,151.32
2023-05-19T02:03:13.944Z,148.40
2023-05-19T02:05:59.645Z,136.63
2023-05-19T02:09:04.399Z,147.35
2023-05-19T02:11:44.309Z,127.28
2023-05-19T02:14:19.995Z,146.05
2023-05-19T02:16:49.165Z,158.13
2023-05-19T02:19:26.038Z,164.02
2023-05-19T02:21:56.592Z,163.55
2023-05-19T02:24:24.420Z,161.65
2023-05-19T02:26:53.814Z,149.63
2023-05-19T02:29:21.571Z,165.50
2023-05-19T02:31:51.569Z,154.90
2023-05-19T02:34:20.180Z,158.52
2023-05-19T02:36:50.083Z,163.90
2023-05-19T02:39:18.098Z,161.48
2023-05-19T02:41:45.630Z,147.57
2023-05-19T02:44:15.722Z,134.40
2023-05-19T02:46:43.467Z,138.68
2023-05-19T02:49:11.709Z,135.32
2023-05-19T02:51:40.022Z,139.80
2023-05-19T02:54:10.220Z,141.32
2023-05-19T02:56:37.822Z,137.45
2023-05-19T02:59:06.263Z,132.13
2023-05-19T03:01:33.945Z,133.88
2023-05-19T03:04:01.746Z,129.88
2023-05-19T03:06:29.564Z,136.82
2023-05-19T03:08:57.097Z,145.68
2023-05-19T03:11:24.634Z,130.35
2023-05-19T03:13:52.397Z,133.70
2023-05-19T03:16:20.305Z,135.48
2023-05-19T03:18:48.032Z,145.00
2023-05-19T03:21:15.748Z,148.63
2023-05-19T03:23:43.258Z,162.23
2023-05-19T03:26:11.118Z,177.95
2023-05-19T03:28:38.672Z,160.25
2023-05-19T03:31:06.245Z,189.82
2023-05-19T03:33:38.870Z,200.10
2023-05-19T03:36:07.359Z,209.13
2023-05-19T03:38:39.340Z,200.73
2023-05-19T03:41:09.835Z,185.52
2023-05-19T03:43:37.675Z,172.77
2023-05-19T03:46:07.715Z,182.32
2023-05-19T03:49:01.440Z,140.95
2023-05-19T03:51:49.310Z,137.68
2023-05-19T03:54:42.921Z,138.18
2023-05-19T03:57:11.454Z,127.18
2023-05-19T03:59:41.463Z,138.18
2023-05-19T04:02:09.149Z,141.65
2023-05-19T04:04:38.180Z,141.98
2023-05-19T04:07:05.891Z,144.07
2023-05-19T04:09:35.368Z,139.45
2023-05-19T04:12:03.164Z,138.18
2023-05-19T04:14:34.930Z,145.07
2023-05-19T04:17:04.178Z,127.55
2023-05-19T04:19:31.800Z,132.35
2023-05-19T04:21:59.378Z,142.48
2023-05-19T04:24:29.514Z,130.65
2023-05-19T04:26:57.154Z,113.20
2023-05-19T04:29:24.722Z,114.95
2023-05-19T04:31:53.056Z,104.13
2023-05-19T04:34:20.904Z,112.50
2023-05-19T04:36:50.992Z,122.85
2023-05-19T04:39:21.722Z,120.25
2023-05-19T04:41:49.750Z,114.88
2023-05-19T04:44:20.592Z,109.07
2023-05-19T04:49:24.528Z,81.63
2023-05-19T04:51:55.497Z,91.38
2023-05-19T04:54:28.690Z,85.25
2023-05-19T04:56:59.086Z,84.13
2023-05-19T04:59:29.166Z,82.93
2023-05-19T05:01:57.013Z,87.03
2023-05-19T05:04:27.228Z,83.72
2023-05-19T05:06:55.539Z,97.43
2023-05-19T05:09:24.850Z,86.80
2023-05-19T05:11:53.111Z,91.97
2023-05-19T05:14:21.060Z,89.90
2023-05-19T05:16:49.702Z,93.47
2023-05-19T05:19:23.207Z,87.20
2023-05-19T05:21:52.152Z,90.32
2023-05-19T05:24:20.618Z,92.47
2023-05-19T05:26:53.661Z,82.80
2023-05-19T05:29:21.859Z,87.22
2023-05-19T05:31:50.022Z,97.78
2023-05-19T05:34:18.118Z,87.53
2023-05-19T05:36:45.766Z,93.18
2023-05-19T05:39:13.999Z,89.05
2023-05-19T05:41:43.144Z,88.47
2023-05-19T05:44:12.559Z,96.07
2023-05-19T05:46:43.088Z,94.22
2023-05-19T05:49:12.643Z,91.95
2023-05-19T05:51:54.285Z,100.80
2023-05-19T05:54:32.748Z,90.60
2023-05-19T05:57:00.766Z,90.85
2023-05-19T05:59:28.304Z,85.05
2023-05-19T06:01:55.981Z,90.55
2023-05-19T06:04:25.890Z,96.90
2023-05-19T06:06:57.448Z,93.00
2023-05-19T06:09:27.075Z,89.93
2023-05-19T06:11:55.075Z,91.13
2023-05-19T06:14:23.248Z,89.95
2023-05-19T06:17:13.884Z,91.28
2023-05-19T06:19:41.840Z,94.30
2023-05-19T06:22:09.988Z,90.07
2023-05-19T06:24:39.438Z,95.63
2023-05-19T06:27:09.545Z,94.50
2023-05-19T06:29:37.299Z,95.95
2023-05-19T06:32:07.490Z,95.53
2023-05-19T06:34:35.842Z,91.32
2023-05-19T06:37:04.134Z,90.60
2023-05-19T06:39:33.257Z,103.07
2023-05-19T06:42:00.963Z,99.10
2023-05-19T06:44:47.139Z,100.57
2023-05-19T06:47:17.433Z,102.20
2023-05-19T06:49:46.457Z,98.82
2023-05-19T06:52:14.529Z,104.28
2023-05-19T06:54:42.086Z,109.78
2023-05-19T06:57:10.907Z,108.85
2023-05-19T06:59:40.983Z,109.75
2023-05-19T07:02:09.741Z,115.25
2023-05-19T07:04:37.817Z,114.57
2023-05-19T07:07:05.509Z,122.47
2023-05-19T07:09:33.499Z,110.03
2023-05-19T07:12:01.621Z,110.53
2023-05-19T07:14:30.150Z,109.82
2023-05-19T07:16:58.204Z,114.25
2023-05-19T07:19:26.058Z,107.63
2023-05-19T07:21:55.560Z,114.63
2023-05-19T07:24:23.362Z,98.50
2023-05-19T07:26:51.382Z,113.50
2023-05-19T07:29:19.019Z,106.80
2023-05-19T07:31:46.570Z,108.78
2023-05-19T07:34:14.064Z,111.88
2023-05-19T07:36:42.336Z,125.32
2023-05-19T07:39:10.516Z,109.95
2023-05-19T07:41:38.287Z,105.88
2023-05-19T07:44:07.941Z,111.10
2023-05-19T07:46:36.518Z,115.85
2023-05-19T07:49:05.030Z,125.85
2023-05-19T07:51:32.787Z,122.28
2023-05-19T07:54:00.306Z,123.60
2023-05-19T07:56:27.856Z,130.40
2023-05-19T07:58:55.875Z,135.00
2023-05-19T08:01:23.393Z,137.38
2023-05-19T08:03:51.299Z,130.45
2023-05-19T08:06:19.054Z,131.75
2023-05-19T08:08:46.650Z,131.38
2023-05-19T08:11:20.500Z,127.10
2023-05-19T08:13:49.413Z,119.67
2023-05-19T08:16:17.079Z,119.70
2023-05-19T08:18:44.651Z,113.57
2023-05-19T08:21:12.492Z,117.88
2023-05-19T08:23:39.984Z,120.25
2023-05-19T08:26:07.548Z,121.25
2023-05-19T08:28:35.040Z,122.45
2023-05-19T08:31:02.610Z,123.47
2023-05-19T08:33:30.572Z,122.00
2023-05-19T08:35:58.315Z,116.97
2023-05-19T08:38:26.748Z,121.60
2023-05-19T08:40:54.377Z,112.93
2023-05-19T08:43:22.168Z,123.45
2023-05-19T08:45:50.126Z,124.60
2023-05-19T08:48:19.505Z,118.57
2023-05-19T08:50:57.343Z,131.57
2023-05-19T08:53:34.100Z,126.28
2023-05-19T08:56:11.359Z,131.80
2023-05-19T08:58:44.231Z,132.10
2023-05-19T09:01:17.217Z,135.13
2023-05-19T09:03:49.915Z,129.23
2023-05-19T09:08:48.418Z,129.60
2023-05-19T09:11:16.223Z,118.65
2023-05-19T09:13:44.817Z,118.57
2023-05-19T09:16:13.106Z,122.15
2023-05-19T09:18:43.417Z,115.47
2023-05-19T09:21:12.062Z,127.32
2023-05-19T09:23:39.998Z,124.63
2023-05-19T09:26:08.267Z,120.25
2023-05-19T09:28:38.090Z,125.38
2023-05-19T09:31:08.725Z,114.18
2023-05-19T09:33:38.041Z,116.97
2023-05-19T09:36:08.768Z,121.63
2023-05-19T09:38:39.998Z,123.47
2023-05-19T09:41:12.457Z,112.50
2023-05-19T09:43:40.152Z,110.63
2023-05-19T09:46:12.000Z,118.45
2023-05-19T09:48:43.898Z,116.63
2023-05-19T09:51:12.463Z,117.00
2023-05-19T09:53:40.055Z,112.50
2023-05-19T09:56:09.935Z,109.28
2023-05-19T09:58:39.225Z,117.15
2023-05-19T10:01:07.771Z,119.47
2023-05-19T10:03:36.901Z,123.03
2023-05-19T10:06:05.515Z,127.15
2023-05-19T10:08:34.416Z,126.85
2023-05-19T10:11:02.506Z,118.47
2023-05-19T10:13:31.027Z,128.32
2023-05-19T10:15:59.902Z,127.43
2023-05-19T10:18:29.810Z,119.93
2023-05-19T10:20:59.202Z,126.22
2023-05-19T10:23:27.077Z,122.60
2023-05-19T10:25:57.676Z,112.88
2023-05-19T10:28:37.001Z,114.82
2023-05-19T10:31:11.614Z,115.13
2023-05-19T10:33:49.063Z,121.10
2023-05-19T10:36:46.092Z,117.57
2023-05-19T10:39:24.203Z,117.88
2023-05-19T10:42:04.339Z,122.95
2023-05-19T10:45:30.333Z,119.32
2023-05-19T10:47:57.967Z,118.75
2023-05-19T10:50:26.259Z,117.85
2023-05-19T10:52:56.100Z,120.43
2023-05-19T10:55:58.501Z,122.20
2023-05-19T11:01:41.796Z,116.00
2023-05-19T11:04:14.996Z,122.78
2023-05-19T11:06:51.727Z,121.60
2023-05-19T11:09:22.477Z,122.23
2023-05-19T11:12:04.124Z,116.13
2023-05-19T11:14:32.865Z,121.35
2023-05-19T11:17:01.522Z,120.45
2023-05-19T11:19:31.503Z,118.68
2023-05-19T11:22:12.900Z,120.55
2023-05-19T11:24:52.464Z,118.35
2023-05-19T11:27:31.812Z,119.63
2023-05-19T11:30:14.551Z,117.72
2023-05-19T11:32:42.992Z,120.82
2023-05-19T11:35:11.239Z,124.03
2023-05-19T11:37:40.783Z,117.70
2023-05-19T11:40:09.370Z,114.30
2023-05-19T11:42:37.346Z,126.82
2023-05-19T11:45:08.791Z,132.70
2023-05-19T11:47:50.786Z,127.70
2023-05-19T11:50:25.058Z,124.28
2023-05-19T11:52:53.494Z,119.82
2023-05-19T11:55:25.015Z,116.68
2023-05-19T11:58:04.648Z,117.82
2023-05-19T12:00:39.560Z,115.18
2023-05-19T12:03:10.990Z,116.63
2023-05-19T12:05:43.855Z,120.78
2023-05-19T12:08:12.524Z,118.88
2023-05-19T12:10:40.679Z,121.07
2023-05-19T12:13:11.858Z,120.28
2023-05-19T12:15:39.735Z,124.18
2023-05-19T12:18:07.824Z,111.20
2023-05-19T12:20:36.533Z,133.35
2023-05-19T12:23:05.243Z,122.15
2023-05-19T12:25:33.132Z,120.25
2023-05-19T12:28:07.578Z,127.68
2023-05-19T12:30:35.582Z,119.07
2023-05-19T12:33:03.689Z,117.13
2023-05-19T12:35:34.147Z,115.45
2023-05-19T12:38:06.816Z,126.13
2023-05-19T12:40:36.023Z,122.68
2023-05-19T12:43:04.598Z,109.65
2023-05-19T12:45:36.223Z,114.30
2023-05-19T12:48:05.672Z,118.03
2023-05-19T12:50:34.586Z,123.13
2023-05-19T12:53:02.455Z,122.43
2023-05-19T12:55:30.388Z,115.05
2023-05-19T12:57:58.599Z,120.80
2023-05-19T13:00:29.241Z,125.70
2023-05-19T13:03:05.811Z,116.82
2023-05-19T13:05:39.683Z,114.30
2023-05-19T13:08:12.300Z,109.60
2023-05-19T13:10:41.178Z,116.45
2023-05-19T13:13:09.919Z,120.15
2023-05-19T13:15:42.447Z,117.00
2023-05-19T13:18:11.999Z,118.03
2023-05-19T13:20:43.694Z,113.70
2023-05-19T13:23:12.345Z,119.68
2023-05-19T13:25:41.392Z,118.95
2023-05-19T13:28:09.916Z,117.97
2023-05-19T13:30:39.551Z,123.35
2023-05-19T13:33:07.431Z,124.43
2023-05-19T13:35:42.454Z,116.43
2023-05-19T13:38:10.828Z,120.53
2023-05-19T13:40:41.431Z,117.55
2023-05-19T13:43:09.875Z,119.00
2023-05-19T13:45:38.029Z,111.10
2023-05-19T13:48:07.546Z,124.95
2023-05-19T13:50:38.182Z,101.20
2023-05-19T13:53:06.010Z,113.55
2023-05-19T13:55:36.166Z,114.45
2023-05-19T13:58:04.187Z,122.05
2023-05-19T14:00:32.556Z,115.80
2023-05-19T14:03:00.544Z,113.18
2023-05-19T14:05:29.167Z,116.68
2023-05-19T14:07:57.089Z,115.60
2023-05-19T14:10:24.827Z,114.90
2023-05-19T14:13:18.407Z,117.75
2023-05-19T14:15:41.721Z,115.65
2023-05-19T14:18:09.257Z,112.70
2023-05-19T14:20:37.154Z,111.43
2023-05-19T14:23:05.102Z,115.63
2023-05-19T14:25:33.000Z,113.70
2023-05-19T14:28:03.783Z,116.00
2023-05-19T14:30:31.312Z,108.88
2023-05-19T14:32:58.909Z,103.97
2023-05-19T14:35:26.890Z,108.85
2023-05-19T14:37:54.405Z,110.68
2023-05-19T14:40:22.203Z,117.28
2023-05-19T14:42:49.621Z,108.78
2023-05-19T14:45:17.181Z,119.72
2023-05-19T14:47:44.674Z,115.57
2023-05-19T14:50:12.380Z,118.28
2023-05-19T14:52:39.970Z,118.22
2023-05-19T14:55:08.174Z,114.38
2023-05-19T14:57:35.967Z,119.40
2023-05-19T15:00:04.008Z,122.10
2023-05-19T15:02:31.567Z,119.68
2023-05-19T15:05:01.307Z,115.22
2023-05-19T15:07:28.826Z,111.53
2023-05-19T15:09:56.299Z,116.53
2023-05-19T15:12:24.080Z,117.55
2023-05-19T15:14:53.934Z,116.97
2023-05-19T15:17:21.587Z,113.93
2023-05-19T15:19:49.151Z,120.10
2023-05-19T15:22:16.789Z,127.55
2023-05-19T15:24:44.468Z,112.65
2023-05-19T15:27:12.077Z,114.35
2023-05-19T15:29:39.584Z,120.63
2023-05-19T15:32:08.132Z,114.07
2023-05-19T15:34:35.859Z,110.35
2023-05-19T15:37:03.462Z,117.03
2023-05-19T15:39:35.151Z,114.47
2023-05-19T15:42:02.726Z,119.45
2023-05-19T15:44:30.251Z,122.90
2023-05-19T15:46:57.760Z,112.63
2023-05-19T15:49:27.547Z,109.70
2023-05-19T15:51:55.658Z,113.57
2023-05-19T15:54:23.421Z,111.70
2023-05-19T15:56:54.082Z,123.78
2023-05-19T15:59:21.609Z,114.68
2023-05-19T16:01:50.578Z,122.40
2023-05-19T16:04:20.233Z,116.17
2023-05-19T16:06:47.786Z,115.07
2023-05-19T16:09:15.330Z,122.25
2023-05-19T16:11:42.914Z,116.35
2023-05-19T16:14:10.426Z,116.63
2023-05-19T16:16:37.949Z,121.90
2023-05-19T16:19:05.875Z,122.03
2023-05-19T16:21:33.436Z,113.00
2023-05-19T16:24:01.424Z,115.43
2023-05-19T16:26:29.094Z,116.43
2023-05-19T16:28:56.632Z,114.63
2023-05-19T16:31:24.549Z,121.50
2023-05-19T16:33:52.114Z,119.97
2023-05-19T16:36:22.107Z,108.35
2023-05-19T16:38:53.577Z,114.97
2023-05-19T16:41:21.832Z,108.63
2023-05-19T16:43:49.415Z,122.10
2023-05-19T16:46:16.937Z,116.95
2023-05-19T16:48:46.840Z,113.35
2023-05-19T16:51:14.392Z,120.32
2023-05-19T16:53:41.964Z,113.35
2023-05-19T16:56:09.417Z,113.50
2023-05-19T16:58:37.092Z,120.20
2023-05-19T17:01:04.893Z,120.93
2023-05-19T17:03:32.512Z,111.53
2023-05-19T17:06:00.962Z,117.47
2023-05-19T17:08:28.454Z,116.63
2023-05-19T17:10:56.028Z,107.55
2023-05-19T17:13:23.616Z,111.22
2023-05-19T17:15:52.839Z,115.47
2023-05-19T17:18:20.465Z,116.00
2023-05-19T17:20:48.052Z,121.13
2023-05-19T17:23:15.521Z,108.10
2023-05-19T17:25:43.110Z,116.35
2023-05-19T17:28:10.937Z,110.63
2023-05-19T17:30:40.199Z,107.28
2023-05-19T17:33:07.964Z,118.82
2023-05-19T17:35:35.523Z,113.03
2023-05-19T17:38:06.324Z,118.28
2023-05-19T17:40:34.695Z,111.20
2023-05-19T17:43:02.472Z,110.25
2023-05-19T17:45:30.397Z,110.35
2023-05-19T17:47:58.145Z,109.75
2023-05-19T17:50:25.696Z,112.07
2023-05-19T17:52:54.754Z,115.43
2023-05-19T17:55:30.051Z,114.75
2023-05-19T17:57:58.076Z,112.03
2023-05-19T18:00:26.287Z,108.32
2023-05-19T18:02:54.397Z,111.28
2023-05-19T18:05:22.487Z,115.72
2023-05-19T18:07:50.316Z,111.45
2023-05-19T18:10:18.267Z,115.05
2023-05-19T18:12:45.820Z,110.53
2023-05-19T18:15:15.742Z,112.00
2023-05-19T18:17:43.231Z,110.45
2023-05-19T18:20:12.050Z,110.88
2023-05-19T18:22:39.643Z,116.35
2023-05-19T18:25:07.690Z,115.45
2023-05-19T18:27:35.241Z,115.40
2023-05-19T18:30:02.795Z,114.80
2023-05-19T18:32:33.507Z,108.38
2023-05-19T18:35:01.102Z,111.20
2023-05-19T18:37:28.828Z,113.38
2023-05-19T18:39:56.442Z,114.18
2023-05-19T18:42:24.155Z,114.55
2023-05-19T18:44:51.848Z,116.55
2023-05-19T18:47:19.966Z,121.25
2023-05-19T18:49:47.569Z,112.90
2023-05-19T18:52:15.268Z,112.95
2023-05-19T18:54:43.030Z,109.43
2023-05-19T18:57:11.190Z,120.25
2023-05-19T18:59:38.866Z,121.72
2023-05-19T19:02:06.819Z,122.38
2023-05-19T19:04:34.290Z,115.43
2023-05-19T19:07:01.950Z,114.10
2023-05-19T19:09:29.468Z,118.28
2023-05-19T19:11:57.066Z,123.57
2023-05-19T19:14:24.630Z,120.88
2023-05-19T19:16:58.172Z,122.45
2023-05-19T19:19:28.583Z,118.03
2023-05-19T19:21:56.340Z,127.43
2023-05-19T19:24:24.166Z,128.90
2023-05-19T19:26:51.701Z,132.90
2023-05-19T19:29:21.955Z,125.10
2023-05-19T19:31:49.804Z,129.32
2023-05-19T19:34:19.946Z,126.65
2023-05-19T19:36:48.095Z,124.25
2023-05-19T19:39:15.666Z,127.38
2023-05-19T19:41:43.549Z,122.82
2023-05-19T19:44:13.347Z,129.55
2023-05-19T19:46:41.276Z,117.82
2023-05-19T19:49:08.891Z,120.28
2023-05-19T19:51:36.411Z,124.70
2023-05-19T19:54:04.011Z,126.22
2023-05-19T19:56:31.510Z,128.48
2023-05-19T19:58:59.463Z,126.93
2023-05-19T20:01:27.953Z,119.50
2023-05-19T20:03:56.919Z,126.40
2023-05-19T20:06:24.809Z,126.07
2023-05-19T20:08:52.456Z,117.50
2023-05-19T20:11:22.908Z,123.68
2023-05-19T20:13:50.708Z,129.07
2023-05-19T20:16:18.322Z,135.15
2023-05-19T20:18:46.095Z,112.35
2023-05-19T20:21:13.676Z,111.20
2023-05-19T20:23:41.895Z,135.18
2023-05-19T20:26:13.133Z,135.88
2023-05-19T20:28:43.678Z,128.65
2023-05-19T20:31:11.441Z,138.70
2023-05-19T20:33:39.163Z,128.73
2023-05-19T20:36:07.676Z,133.60
2023-05-19T20:38:35.359Z,126.82
2023-05-19T20:41:04.176Z,140.98
2023-05-19T20:43:34.792Z,124.80
2023-05-19T20:46:03.911Z,128.43
2023-05-19T20:48:34.425Z,120.63
2023-05-19T20:51:02.070Z,120.55
2023-05-19T20:53:29.529Z,136.57
2023-05-19T20:55:57.071Z,133.00
2023-05-19T20:58:26.877Z,127.00
2023-05-19T21:00:58.163Z,126.72
2023-05-19T21:03:27.224Z,125.47
2023-05-19T21:05:55.712Z,133.88
2023-05-19T21:08:26.243Z,120.05
2023-05-19T21:10:56.524Z,130.60
2023-05-19T21:13:23.991Z,137.48
2023-05-19T21:15:51.495Z,146.50
2023-05-19T21:18:19.010Z,139.00
2023-05-19T21:20:46.731Z,141.15
2023-05-19T21:23:14.579Z,148.13
2023-05-19T21:25:44.558Z,148.93
2023-05-19T21:28:12.860Z,151.35
2023-05-19T21:30:40.526Z,145.43
2023-05-19T21:33:08.128Z,140.90
2023-05-19T21:35:36.981Z,158.23
2023-05-19T21:38:15.718Z,153.05
2023-05-19T21:40:50.685Z,150.52
2023-05-19T21:43:18.202Z,135.95
2023-05-19T21:45:46.056Z,143.90
2023-05-19T21:48:13.970Z,146.13
2023-05-19T21:50:41.464Z,132.45
2023-05-19T21:53:09.157Z,149.30
2023-05-19T21:55:39.465Z,154.10
2023-05-19T21:58:09.788Z,148.10
2023-05-19T22:00:38.372Z,155.70
2023-05-19T22:03:06.766Z,158.50
2023-05-19T22:05:35.481Z,165.27
2023-05-19T22:08:03.720Z,174.07
2023-05-19T22:10:33.347Z,177.98
2023-05-19T22:13:01.460Z,161.25
2023-05-19T22:15:28.989Z,154.77
2023-05-19T22:17:56.709Z,152.50
2023-05-19T22:20:24.749Z,168.02
2023-05-19T22:22:53.173Z,163.95
2023-05-19T22:25:20.851Z,176.68
2023-05-19T22:27:48.375Z,176.90
2023-05-19T22:30:16.413Z,162.55
2023-05-19T22:32:46.331Z,169.20
2023-05-19T22:35:13.922Z,170.30
2023-05-19T22:37:41.400Z,162.80
2023-05-19T22:40:09.359Z,158.65
2023-05-19T22:42:36.923Z,155.75
2023-05-19T22:45:05.601Z,161.73
2023-05-19T22:47:33.146Z,151.18
2023-05-19T22:50:00.718Z,148.88
2023-05-19T22:52:28.444Z,150.98
2023-05-19T22:54:56.148Z,155.55
2023-05-19T22:57:23.757Z,161.85
2023-05-19T22:59:51.193Z,153.82
2023-05-19T23:02:19.862Z,175.55
2023-05-19T23:04:47.373Z,168.82
2023-05-19T23:07:14.953Z,177.60
2023-05-19T23:09:42.450Z,165.70
2023-05-19T23:12:09.880Z,170.82
2023-05-19T23:14:37.320Z,172.70
2023-05-19T23:17:05.228Z,163.93
2023-05-19T23:19:35.133Z,166.63
2023-05-19T23:22:02.672Z,168.55
2023-05-19T23:24:30.178Z,172.75
2023-05-19T23:26:57.702Z,167.68
2023-05-19T23:29:25.397Z,174.70
2023-05-19T23:31:52.851Z,182.02
2023-05-19T23:34:20.740Z,176.40
2023-05-19T23:36:48.256Z,191.88
2023-05-19T23:39:15.962Z,176.00
2023-05-19T23:41:43.528Z,186.40
2023-05-19T23:44:12.159Z,182.85
2023-05-19T23:46:39.675Z,162.88
2023-05-19T23:49:07.174Z,182.13
2023-05-19T23:51:34.707Z,178.93
2023-05-19T23:54:03.414Z,195.02
2023-05-19T23:56:30.896Z,191.95
2023-05-19T23:58:58.477Z,165.82
